Time;durP1;ratioP1;P1;durP2;ratioP2;P2;SDS_P1;SDS_P2;PMS_P1;PMS_P2;Temp;Humidity;BMP_temperature;BMP_pressure;BME280_temperature;BME280_humidity;BME280_pressure;Samples;Min_cycle;Max_cycle;Signal;HPM_P1;HPM_P2
2023/05/14 00:00:18;;;;;;;2.33;2.13;;;;;;;;;;4993577;28;20279;-46
2023/05/14 00:02:43;;;;;;;2.33;2.03;;;;;;;;;;4993602;28;20496;-46
2023/05/14 00:05:09;;;;;;;2.92;2.63;;;;;;;;;;4994737;28;20231;-46
2023/05/14 00:07:35;;;;;;;2.70;2.50;;;;;;;;;;4993653;28;20265;-47
2023/05/14 00:10:01;;;;;;;2.83;2.63;;;;;;;;;;4992571;28;20213;-46
2023/05/14 00:12:28;;;;;;;2.90;2.70;;;;;;;;;;4994251;28;20192;-46
2023/05/14 00:14:54;;;;;;;2.83;2.55;;;;;;;;;;4995126;28;20181;-46
2023/05/14 00:17:20;;;;;;;4.22;2.92;;;;;;;;;;4993534;28;20836;-46
2023/05/14 00:19:46;;;;;;;3.35;2.95;;;;;;;;;;4993556;28;20462;-47
2023/05/14 00:22:12;;;;;;;2.90;2.70;;;;;;;;;;4992486;28;20178;-47
2023/05/14 00:24:38;;;;;;;3.00;2.70;;;;;;;;;;4994496;28;20185;-47
2023/05/14 00:27:04;;;;;;;3.90;3.30;;;;;;;;;;4993617;28;20193;-47
2023/05/14 00:29:30;;;;;;;3.50;2.97;;;;;;;;;;4993346;28;20185;-46
2023/05/14 00:31:56;;;;;;;5.68;3.20;;;;;;;;;;4993881;28;20189;-47
2023/05/14 00:34:22;;;;;;;4.40;3.15;;;;;;;;;;4993925;28;20221;-47
2023/05/14 00:36:48;;;;;;;3.47;3.17;;;;;;;;;;4994031;28;20647;-46
2023/05/14 00:39:14;;;;;;;3.53;3.22;;;;;;;;;;4993329;28;20196;-46
2023/05/14 00:41:40;;;;;;;3.50;3.20;;;;;;;;;;4993869;28;20201;-46
2023/05/14 00:44:06;;;;;;;4.50;3.10;;;;;;;;;;4994415;28;20264;-47
2023/05/14 00:46:31;;;;;;;3.92;3.00;;;;;;;;;;4992738;28;20665;-46
2023/05/14 00:48:58;;;;;;;3.10;2.80;;;;;;;;;;4992146;28;20205;-46
2023/05/14 00:51:24;;;;;;;3.53;3.22;;;;;;;;;;4995348;28;20191;-46
2023/05/14 00:53:50;;;;;;;3.13;2.75;;;;;;;;;;4996122;28;20189;-46
2023/05/14 00:56:17;;;;;;;3.92;3.20;;;;;;;;;;4997432;28;20193;-46
2023/05/14 00:58:43;;;;;;;3.60;3.30;;;;;;;;;;4995506;28;20572;-46
2023/05/14 01:01:09;;;;;;;6.15;3.10;;;;;;;;;;4991748;28;20241;-46
2023/05/14 01:03:35;;;;;;;4.15;3.58;;;;;;;;;;4994588;28;20184;-47
2023/05/14 01:06:04;;;;;;;4.53;3.22;;;;;;;;;;4997179;28;20777;-46
2023/05/14 01:08:49;;;;;;;4.38;3.30;;;;;;;;;;4996315;28;20596;-46
2023/05/14 01:11:28;;;;;;;4.78;3.88;;;;;;;;;;4996987;28;20568;-46
2023/05/14 01:14:16;;;;;;;3.67;3.28;;;;;;;;;;4996501;28;20200;-46
2023/05/14 01:16:43;;;;;;;3.45;3.15;;;;;;;;;;4997657;28;20193;-46
2023/05/14 01:19:16;;;;;;;4.10;3.28;;;;;;;;;;4994851;28;20187;-46
2023/05/14 01:21:43;;;;;;;3.80;3.40;;;;;;;;;;4996516;28;20263;-46
2023/05/14 01:24:09;;;;;;;3.40;3.10;;;;;;;;;;4996963;28;20190;-46
2023/05/14 01:26:35;;;;;;;3.47;3.17;;;;;;;;;;4997248;28;20208;-46
2023/05/14 01:29:21;;;;;;;2.75;2.53;;;;;;;;;;4995117;28;20189;-46
2023/05/14 01:31:49;;;;;;;2.83;2.47;;;;;;;;;;4996957;28;20287;-46
2023/05/14 01:34:15;;;;;;;4.90;3.30;;;;;;;;;;4996127;28;20605;-46
2023/05/14 01:36:42;;;;;;;3.13;2.83;;;;;;;;;;4997075;28;20208;-46
2023/05/14 01:39:08;;;;;;;4.95;2.85;;;;;;;;;;4995151;28;20242;-46
2023/05/14 01:41:35;;;;;;;4.97;2.90;;;;;;;;;;4996345;28;20281;-46
2023/05/14 01:44:01;;;;;;;3.17;2.80;;;;;;;;;;4994623;28;20192;-46
2023/05/14 01:46:30;;;;;;;2.90;2.60;;;;;;;;;;4995945;28;20212;-46
2023/05/14 01:48:56;;;;;;;6.25;3.30;;;;;;;;;;4995060;28;20189;-46
2023/05/14 01:51:22;;;;;;;3.20;2.90;;;;;;;;;;4996771;28;20239;-46
2023/05/14 01:53:48;;;;;;;3.45;2.83;;;;;;;;;;4995720;28;20573;-47
2023/05/14 01:56:14;;;;;;;3.42;3.13;;;;;;;;;;4995342;28;20332;-46
2023/05/14 01:58:40;;;;;;;4.80;2.90;;;;;;;;;;4995823;28;20197;-46
2023/05/14 02:01:06;;;;;;;3.60;3.30;;;;;;;;;;4994139;28;20217;-46
2023/05/14 02:03:32;;;;;;;6.93;3.47;;;;;;;;;;4994988;28;20189;-46
2023/05/14 02:05:57;;;;;;;3.47;3.17;;;;;;;;;;4995726;28;20247;-47
2023/05/14 02:08:24;;;;;;;4.40;3.50;;;;;;;;;;4996322;28;20207;-46
2023/05/14 02:10:50;;;;;;;3.40;3.03;;;;;;;;;;4995441;28;20181;-46
2023/05/14 02:13:16;;;;;;;4.47;3.60;;;;;;;;;;4994027;28;20196;-46
2023/05/14 02:15:42;;;;;;;3.55;2.92;;;;;;;;;;4995191;28;20200;-47
2023/05/14 02:18:08;;;;;;;4.28;3.00;;;;;;;;;;4995647;28;20451;-45
2023/05/14 02:20:34;;;;;;;4.80;3.45;;;;;;;;;;4978487;28;20220;-47
2023/05/14 02:23:00;;;;;;;3.88;3.30;;;;;;;;;;4995047;28;20632;-46
2023/05/14 02:25:26;;;;;;;3.20;2.90;;;;;;;;;;4996114;28;20296;-46
2023/05/14 02:27:51;;;;;;;3.95;3.40;;;;;;;;;;4995583;28;20189;-46
2023/05/14 02:30:17;;;;;;;6.43;3.35;;;;;;;;;;4995290;28;20727;-46
2023/05/14 02:32:43;;;;;;;4.30;3.20;;;;;;;;;;4994682;28;20192;-47
2023/05/14 02:35:09;;;;;;;3.90;3.30;;;;;;;;;;4994168;28;20224;-46
2023/05/14 02:37:35;;;;;;;4.05;3.28;;;;;;;;;;4996057;28;20236;-46
2023/05/14 02:40:01;;;;;;;3.42;2.85;;;;;;;;;;4993120;28;20189;-47
2023/05/14 02:42:27;;;;;;;3.95;2.80;;;;;;;;;;4995077;28;20251;-46
2023/05/14 02:44:53;;;;;;;4.75;3.05;;;;;;;;;;4995887;28;20190;-46
2023/05/14 02:47:19;;;;;;;3.53;2.78;;;;;;;;;;4992637;28;20178;-46
2023/05/14 02:49:45;;;;;;;3.13;2.75;;;;;;;;;;4994627;28;20196;-46
2023/05/14 02:52:11;;;;;;;3.60;3.03;;;;;;;;;;4994994;28;20193;-46
2023/05/14 02:54:37;;;;;;;3.05;2.75;;;;;;;;;;4995582;28;20181;-47
2023/05/14 02:57:02;;;;;;;3.70;3.08;;;;;;;;;;4993785;28;20220;-47
2023/05/14 02:59:30;;;;;;;3.42;3.10;;;;;;;;;;4995201;28;20193;-46
2023/05/14 03:01:56;;;;;;;3.72;3.17;;;;;;;;;;4993676;28;20209;-46
2023/05/14 03:04:23;;;;;;;3.35;2.80;;;;;;;;;;4994474;28;20240;-47
2023/05/14 03:06:49;;;;;;;3.10;2.75;;;;;;;;;;4995126;28;20213;-46
2023/05/14 03:09:15;;;;;;;3.95;3.58;;;;;;;;;;4993817;28;20201;-46
2023/05/14 03:11:41;;;;;;;3.47;2.83;;;;;;;;;;4995370;28;20191;-46
2023/05/14 03:14:07;;;;;;;4.65;3.28;;;;;;;;;;4993520;28;20195;-46
2023/05/14 03:16:33;;;;;;;3.65;3.22;;;;;;;;;;4995276;28;20243;-46
2023/05/14 03:18:59;;;;;;;3.40;3.10;;;;;;;;;;4993860;28;20216;-46
2023/05/14 03:21:25;;;;;;;3.25;2.90;;;;;;;;;;4995152;28;20285;-46
2023/05/14 03:23:52;;;;;;;4.97;3.30;;;;;;;;;;4976707;28;20625;-46
2023/05/14 03:26:18;;;;;;;3.72;3.20;;;;;;;;;;4994960;28;20243;-46
2023/05/14 03:28:44;;;;;;;3.25;2.88;;;;;;;;;;4993422;28;20549;-47
2023/05/14 03:31:10;;;;;;;4.65;3.00;;;;;;;;;;4994758;28;20231;-46
2023/05/14 03:33:36;;;;;;;4.15;3.50;;;;;;;;;;4994271;28;20828;-46
2023/05/14 03:36:02;;;;;;;3.90;3.55;;;;;;;;;;4994735;28;20492;-46
2023/05/14 03:38:27;;;;;;;7.60;6.22;;;;;;;;;;4993815;28;20446;-46
2023/05/14 03:40:53;;;;;;;7.03;6.03;;;;;;;;;;4998488;28;20295;-46
2023/05/14 03:43:19;;;;;;;8.43;6.38;;;;;;;;;;4993184;28;20177;-46
2023/05/14 03:45:45;;;;;;;7.13;6.30;;;;;;;;;;4993753;28;20243;-46
2023/05/14 03:48:11;;;;;;;6.72;5.97;;;;;;;;;;4993805;28;20181;-46
2023/05/14 03:50:37;;;;;;;9.63;5.68;;;;;;;;;;4994479;28;20188;-46
2023/05/14 03:53:03;;;;;;;6.25;5.65;;;;;;;;;;4993760;28;20484;-46
2023/05/14 03:55:29;;;;;;;6.47;5.28;;;;;;;;;;4994023;28;20576;-46
2023/05/14 03:57:55;;;;;;;6.00;4.82;;;;;;;;;;4994222;28;20271;-46
2023/05/14 04:00:21;;;;;;;5.43;4.88;;;;;;;;;;4994419;28;20255;-46
2023/05/14 04:02:47;;;;;;;5.75;4.65;;;;;;;;;;4994846;28;20185;-46
2023/05/14 04:05:13;;;;;;;5.90;4.70;;;;;;;;;;4994081;28;20200;-46
2023/05/14 04:07:39;;;;;;;4.40;3.97;;;;;;;;;;4994175;28;20239;-46
2023/05/14 04:10:05;;;;;;;4.35;3.95;;;;;;;;;;4993942;28;20548;-46
2023/05/14 04:12:31;;;;;;;4.45;3.80;;;;;;;;;;4994403;28;20193;-46
2023/05/14 04:14:57;;;;;;;3.67;3.38;;;;;;;;;;4994550;28;20189;-46
2023/05/14 04:17:23;;;;;;;4.78;3.80;;;;;;;;;;4994072;28;20183;-46
2023/05/14 04:19:49;;;;;;;3.97;3.58;;;;;;;;;;4993540;28;20533;-46
2023/05/14 04:22:15;;;;;;;5.88;3.63;;;;;;;;;;4976901;28;20185;-46
2023/05/14 04:24:41;;;;;;;3.35;3.05;;;;;;;;;;4994652;28;20687;-46
2023/05/14 04:27:06;;;;;;;3.33;2.97;;;;;;;;;;4997012;28;20236;-46
2023/05/14 04:29:32;;;;;;;4.30;3.00;;;;;;;;;;4997537;28;20210;-46
2023/05/14 04:31:59;;;;;;;4.40;3.40;;;;;;;;;;4997949;28;20497;-46
2023/05/14 04:34:25;;;;;;;4.82;3.53;;;;;;;;;;4997896;28;20188;-46
2023/05/14 04:36:51;;;;;;;4.80;3.75;;;;;;;;;;4997244;28;20208;-46
2023/05/14 04:39:18;;;;;;;3.80;3.50;;;;;;;;;;4996930;28;20220;-46
2023/05/14 04:41:44;;;;;;;3.20;2.90;;;;;;;;;;4997858;28;20209;-46
2023/05/14 04:44:12;;;;;;;6.15;3.33;;;;;;;;;;4996632;28;20500;-49
2023/05/14 04:46:38;;;;;;;7.40;2.88;;;;;;;;;;4990398;28;20444;-50
2023/05/14 04:49:04;;;;;;;4.80;2.35;;;;;;;;;;4995818;28;20185;-50
2023/05/14 04:51:30;;;;;;;5.80;2.30;;;;;;;;;;4996845;28;20221;-49
2023/05/14 04:53:56;;;;;;;5.80;2.42;;;;;;;;;;4996030;28;20195;-50
2023/05/14 04:56:22;;;;;;;2.95;2.35;;;;;;;;;;4997944;28;20462;-50
2023/05/14 04:58:48;;;;;;;4.65;2.05;;;;;;;;;;4996891;28;20709;-50
2023/05/14 05:01:14;;;;;;;4.00;2.70;;;;;;;;;;4997434;28;20220;-50
2023/05/14 05:03:40;;;;;;;4.97;2.22;;;;;;;;;;4996637;28;20193;-50
2023/05/14 05:06:06;;;;;;;6.80;2.33;;;;;;;;;;4997117;28;20442;-50
2023/05/14 05:08:32;;;;;;;6.35;2.25;;;;;;;;;;4995936;28;20239;-50
2023/05/14 05:10:58;;;;;;;4.13;2.80;;;;;;;;;;4996690;28;20272;-50
2023/05/14 05:13:24;;;;;;;5.80;2.90;;;;;;;;;;4996568;28;20196;-50
2023/05/14 05:15:49;;;;;;;4.43;3.08;;;;;;;;;;4996965;28;20220;-50
2023/05/14 05:18:15;;;;;;;4.47;3.00;;;;;;;;;;4996633;28;20189;-51
2023/05/14 05:20:41;;;;;;;6.45;3.47;;;;;;;;;;4996225;28;20209;-51
2023/05/14 05:23:07;;;;;;;5.55;3.20;;;;;;;;;;4995049;28;20205;-50
2023/05/14 05:25:33;;;;;;;5.93;3.25;;;;;;;;;;4996979;28;20627;-50
2023/05/14 05:27:59;;;;;;;6.88;3.17;;;;;;;;;;4996709;28;20185;-50
2023/05/14 05:30:25;;;;;;;4.90;3.30;;;;;;;;;;4995636;28;20173;-50
2023/05/14 05:32:51;;;;;;;4.07;2.83;;;;;;;;;;4996940;28;20189;-51
2023/05/14 05:35:17;;;;;;;3.10;2.70;;;;;;;;;;4994671;28;20232;-51
2023/05/14 05:37:44;;;;;;;4.05;2.72;;;;;;;;;;4995272;28;20560;-50
2023/05/14 05:40:10;;;;;;;5.57;2.17;;;;;;;;;;4995957;28;20209;-51
2023/05/14 05:42:36;;;;;;;2.58;2.13;;;;;;;;;;4996562;28;20182;-51
2023/05/14 05:45:02;;;;;;;4.65;2.33;;;;;;;;;;4980078;28;20208;-50
2023/05/14 05:47:28;;;;;;;7.07;2.63;;;;;;;;;;4996085;28;20501;-51
2023/05/14 05:49:54;;;;;;;8.43;2.55;;;;;;;;;;4990578;28;20232;-52
2023/05/14 05:52:20;;;;;;;6.28;3.05;;;;;;;;;;4996995;28;20185;-50
2023/05/14 05:54:46;;;;;;;4.45;2.90;;;;;;;;;;4995908;28;20465;-56
2023/05/14 05:57:12;;;;;;;10.20;2.80;;;;;;;;;;4996134;28;20203;-51
2023/05/14 05:59:38;;;;;;;4.75;3.00;;;;;;;;;;4995987;28;20205;-52
2023/05/14 06:02:04;;;;;;;5.72;3.00;;;;;;;;;;4996942;28;20212;-52
2023/05/14 06:04:30;;;;;;;13.35;3.72;;;;;;;;;;4995524;28;20189;-52
2023/05/14 06:06:56;;;;;;;11.25;3.30;;;;;;;;;;4996020;28;20209;-52
2023/05/14 06:09:22;;;;;;;11.43;3.60;;;;;;;;;;4995519;28;20287;-52
2023/05/14 06:11:48;;;;;;;6.07;3.60;;;;;;;;;;4995692;28;20189;-51
2023/05/14 06:14:14;;;;;;;7.25;3.50;;;;;;;;;;4995666;28;20177;-51
2023/05/14 06:16:40;;;;;;;8.43;3.70;;;;;;;;;;4993818;28;20471;-52
2023/05/14 06:19:07;;;;;;;7.05;3.45;;;;;;;;;;4994175;28;20323;-51
2023/05/14 06:21:33;;;;;;;4.50;3.40;;;;;;;;;;4995483;28;20219;-52
2023/05/14 06:23:58;;;;;;;6.55;3.55;;;;;;;;;;4995263;28;20260;-52
2023/05/14 06:26:25;;;;;;;5.00;3.10;;;;;;;;;;4996228;28;20211;-52
2023/05/14 06:28:51;;;;;;;4.82;3.53;;;;;;;;;;4994119;28;20192;-51
2023/05/14 06:31:17;;;;;;;7.30;3.10;;;;;;;;;;4995538;28;20189;-52
2023/05/14 06:33:44;;;;;;;9.93;2.85;;;;;;;;;;4994815;28;20296;-52
2023/05/14 06:36:10;;;;;;;4.72;3.15;;;;;;;;;;4995556;28;20178;-52
2023/05/14 06:38:36;;;;;;;4.25;3.15;;;;;;;;;;4977733;28;20192;-52
2023/05/14 06:41:02;;;;;;;4.10;3.20;;;;;;;;;;4995433;28;20209;-51
2023/05/14 06:43:28;;;;;;;3.95;3.47;;;;;;;;;;4995064;28;20549;-52
2023/05/14 06:45:54;;;;;;;3.60;3.30;;;;;;;;;;4995253;28;20455;-52
2023/05/14 06:48:20;;;;;;;6.28;3.58;;;;;;;;;;4992548;28;20228;-51
2023/05/14 06:50:49;;;;;;;3.45;3.15;;;;;;;;;;4994512;28;20189;-52
2023/05/14 06:53:15;;;;;;;3.58;3.28;;;;;;;;;;4994112;28;20252;-51
2023/05/14 06:55:41;;;;;;;3.22;3.00;;;;;;;;;;4978746;28;20279;-51
2023/05/14 06:58:07;;;;;;;5.63;3.60;;;;;;;;;;4994500;28;20577;-51
2023/05/14 07:00:33;;;;;;;4.18;3.60;;;;;;;;;;4993942;28;20209;-52
2023/05/14 07:02:59;;;;;;;4.07;3.50;;;;;;;;;;4992057;28;20181;-51
2023/05/14 07:05:25;;;;;;;3.55;3.20;;;;;;;;;;4995124;28;20270;-52
2023/05/14 07:07:51;;;;;;;3.80;3.25;;;;;;;;;;4994813;28;20224;-52
2023/05/14 07:10:17;;;;;;;3.60;3.10;;;;;;;;;;4994832;28;20216;-51
2023/05/14 07:12:44;;;;;;;4.43;3.42;;;;;;;;;;4994217;28;20193;-52
2023/05/14 07:15:11;;;;;;;4.68;3.22;;;;;;;;;;4994398;28;20189;-52
2023/05/14 07:17:36;;;;;;;2.97;2.67;;;;;;;;;;4994426;28;20569;-52
2023/05/14 07:20:02;;;;;;;3.65;3.00;;;;;;;;;;4993756;28;20268;-52
2023/05/14 07:22:28;;;;;;;2.97;2.70;;;;;;;;;;4994314;28;20188;-52
2023/05/14 07:24:54;;;;;;;3.15;2.70;;;;;;;;;;4995226;28;20189;-52
2023/05/14 07:27:25;;;;;;;11.55;3.25;;;;;;;;;;4992958;28;20611;-52
2023/05/14 07:29:51;;;;;;;4.97;2.92;;;;;;;;;;4994329;28;20474;-52
2023/05/14 07:32:17;;;;;;;3.05;2.78;;;;;;;;;;4993093;28;20196;-52
2023/05/14 07:34:43;;;;;;;3.75;2.83;;;;;;;;;;4994621;28;20319;-52
2023/05/14 07:37:08;;;;;;;3.10;2.75;;;;;;;;;;4993775;28;20579;-52
2023/05/14 07:39:35;;;;;;;4.05;2.80;;;;;;;;;;4993788;28;20260;-52
2023/05/14 07:42:01;;;;;;;4.38;3.30;;;;;;;;;;4993349;28;20197;-52
2023/05/14 07:44:26;;;;;;;3.38;3.08;;;;;;;;;;4992855;28;20189;-52
2023/05/14 07:46:52;;;;;;;3.63;3.10;;;;;;;;;;4970460;28;20767;-52
2023/05/14 07:49:18;;;;;;;3.05;2.70;;;;;;;;;;4975997;28;20177;-52
2023/05/14 07:51:44;;;;;;;3.13;2.70;;;;;;;;;;4994305;28;20196;-52
2023/05/14 07:54:10;;;;;;;5.20;2.72;;;;;;;;;;4993330;28;20216;-52
2023/05/14 07:56:36;;;;;;;3.60;2.70;;;;;;;;;;4993367;28;20239;-52
2023/05/14 07:59:02;;;;;;;3.90;3.17;;;;;;;;;;4992497;28;20598;-51
2023/05/14 08:01:28;;;;;;;3.88;2.80;;;;;;;;;;4995881;28;20522;-52
2023/05/14 08:03:54;;;;;;;2.72;2.53;;;;;;;;;;4997040;28;20593;-52
2023/05/14 08:06:21;;;;;;;4.57;2.88;;;;;;;;;;4998728;28;20264;-52
2023/05/14 08:08:47;;;;;;;2.70;2.50;;;;;;;;;;4993278;28;20177;-52
2023/05/14 08:11:13;;;;;;;4.78;2.75;;;;;;;;;;4998015;28;20187;-52
2023/05/14 08:13:39;;;;;;;2.72;2.53;;;;;;;;;;4997146;28;20199;-52
2023/05/14 08:16:06;;;;;;;2.97;2.35;;;;;;;;;;4997299;28;20177;-51
2023/05/14 08:18:31;;;;;;;3.65;2.90;;;;;;;;;;4997558;28;20211;-51
2023/05/14 08:20:57;;;;;;;3.05;2.75;;;;;;;;;;4997657;28;20592;-51
2023/05/14 08:23:23;;;;;;;3.13;2.65;;;;;;;;;;4998241;28;20193;-51
2023/05/14 08:25:49;;;;;;;3.92;2.65;;;;;;;;;;4998576;28;20196;-51
2023/05/14 08:28:20;;;;;;;3.22;2.92;;;;;;;;;;4997513;28;20484;-52
2023/05/14 08:30:48;;;;;;;3.33;3.00;;;;;;;;;;4997078;28;20177;-52
2023/05/14 08:33:14;;;;;;;2.55;2.35;;;;;;;;;;4996475;28;20231;-52
2023/05/14 08:35:40;;;;;;;3.20;2.40;;;;;;;;;;4997119;28;20192;-52
2023/05/14 08:38:06;;;;;;;3.75;2.67;;;;;;;;;;4998117;28;20182;-52
2023/05/14 08:40:32;;;;;;;3.45;2.90;;;;;;;;;;4997263;28;20212;-52
2023/05/14 08:42:58;;;;;;;3.08;2.72;;;;;;;;;;4997296;28;20217;-52
2023/05/14 08:45:27;;;;;;;2.80;2.60;;;;;;;;;;4996517;28;20181;-51
2023/05/14 08:47:54;;;;;;;2.78;2.58;;;;;;;;;;4996461;28;20195;-51
2023/05/14 08:50:21;;;;;;;3.42;3.00;;;;;;;;;;4997175;28;20189;-52
2023/05/14 08:52:47;;;;;;;4.32;2.80;;;;;;;;;;4996991;28;20182;-51
2023/05/14 08:55:14;;;;;;;2.90;2.70;;;;;;;;;;4996629;28;20264;-51
2023/05/14 08:57:40;;;;;;;2.58;2.38;;;;;;;;;;4996900;28;20188;-51
2023/05/14 09:00:12;;;;;;;5.55;3.28;;;;;;;;;;4996461;28;20589;-52
2023/05/14 09:02:39;;;;;;;4.55;2.75;;;;;;;;;;4997822;28;20543;-52
2023/05/14 09:05:06;;;;;;;4.65;2.80;;;;;;;;;;4995062;28;20169;-52
2023/05/14 09:07:32;;;;;;;4.28;2.88;;;;;;;;;;4993421;28;20184;-52
2023/05/14 09:09:59;;;;;;;3.08;2.70;;;;;;;;;;4996006;28;20188;-52
2023/05/14 09:12:25;;;;;;;3.47;2.60;;;;;;;;;;4997266;28;20584;-52
2023/05/14 09:14:51;;;;;;;4.10;3.00;;;;;;;;;;4995362;28;20212;-51
2023/05/14 09:17:17;;;;;;;4.10;3.28;;;;;;;;;;4996561;28;20417;-51
2023/05/14 09:19:47;;;;;;;5.18;3.22;;;;;;;;;;4995998;28;20197;-52
2023/05/14 09:22:14;;;;;;;3.67;2.95;;;;;;;;;;4997550;28;20221;-52
2023/05/14 09:24:40;;;;;;;3.78;3.17;;;;;;;;;;4996611;28;20185;-51
2023/05/14 09:27:06;;;;;;;3.45;3.15;;;;;;;;;;4996849;28;20247;-52
2023/05/14 09:29:33;;;;;;;3.95;3.00;;;;;;;;;;4995533;28;20192;-52
2023/05/14 09:32:03;;;;;;;3.50;3.17;;;;;;;;;;4979975;28;20512;-52
2023/05/14 09:34:33;;;;;;;3.63;3.33;;;;;;;;;;4996091;28;20556;-52
2023/05/14 09:37:01;;;;;;;4.28;3.15;;;;;;;;;;4995807;28;20185;-52
2023/05/14 09:39:27;;;;;;;3.13;2.80;;;;;;;;;;4995791;28;20269;-51
2023/05/14 09:41:55;;;;;;;4.22;2.67;;;;;;;;;;4996074;28;20468;-51
2023/05/14 09:44:22;;;;;;;3.33;2.70;;;;;;;;;;4994458;28;20600;-52
2023/05/14 09:46:48;;;;;;;3.53;2.67;;;;;;;;;;4996998;28;20577;-52
2023/05/14 09:49:14;;;;;;;4.47;2.83;;;;;;;;;;4994392;28;20177;-52
2023/05/14 09:51:40;;;;;;;3.22;2.92;;;;;;;;;;4979594;28;20247;-52
2023/05/14 09:54:06;;;;;;;3.92;2.95;;;;;;;;;;4995696;28;20189;-51
2023/05/14 09:56:33;;;;;;;6.05;3.00;;;;;;;;;;4996763;28;20197;-51
2023/05/14 09:58:59;;;;;;;3.47;2.95;;;;;;;;;;4995943;28;20228;-52
2023/05/14 10:01:25;;;;;;;4.65;3.47;;;;;;;;;;4995652;28;20592;-52
2023/05/14 10:04:03;;;;;;;3.70;3.30;;;;;;;;;;4996438;28;20207;-51
2023/05/14 10:06:38;;;;;;;6.78;3.47;;;;;;;;;;4992204;28;20239;-52
2023/05/14 10:09:04;;;;;;;6.43;3.47;;;;;;;;;;4985358;28;20220;-51
2023/05/14 10:11:31;;;;;;;6.53;3.40;;;;;;;;;;4996096;28;20196;-51
2023/05/14 10:14:07;;;;;;;3.15;2.65;;;;;;;;;;4994815;28;20639;-51
2023/05/14 10:16:34;;;;;;;3.03;2.83;;;;;;;;;;4996290;28;20578;-52
2023/05/14 10:19:04;;;;;;;8.90;3.35;;;;;;;;;;4995579;28;20267;-52
2023/05/14 10:21:31;;;;;;;12.50;7.47;;;;;;;;;;4994976;28;20213;-51
2023/05/14 10:23:57;;;;;;;52.00;30.50;;;;;;;;;;4994374;28;20177;-52
2023/05/14 10:26:24;;;;;;;64.85;36.83;;;;;;;;;;4995556;28;20197;-52
2023/05/14 10:28:50;;;;;;;86.60;48.85;;;;;;;;;;4995285;28;20185;-51
2023/05/14 10:31:16;;;;;;;74.32;41.88;;;;;;;;;;4994574;28;20181;-51
2023/05/14 10:33:49;;;;;;;58.55;35.92;;;;;;;;;;4994061;28;20203;-51
2023/05/14 10:36:15;;;;;;;58.38;34.38;;;;;;;;;;4993559;28;20187;-51
2023/05/14 10:38:41;;;;;;;47.33;29.35;;;;;;;;;;4993853;28;20192;-52
2023/05/14 10:41:11;;;;;;;42.50;26.55;;;;;;;;;;4992287;28;20213;-51
2023/05/14 10:43:38;;;;;;;41.67;26.20;;;;;;;;;;4994961;28;20185;-51
2023/05/14 10:46:05;;;;;;;40.28;24.50;;;;;;;;;;4994231;28;20200;-51
2023/05/14 10:48:31;;;;;;;43.92;26.17;;;;;;;;;;4994870;28;20553;-51
2023/05/14 10:50:57;;;;;;;25.63;16.10;;;;;;;;;;4992904;28;20354;-51
2023/05/14 10:53:31;;;;;;;27.83;18.92;;;;;;;;;;4995415;28;20573;-51
2023/05/14 10:55:57;;;;;;;29.20;18.17;;;;;;;;;;4993271;28;20580;-51
2023/05/14 10:58:23;;;;;;;29.85;17.98;;;;;;;;;;4995416;28;20425;-52
2023/05/14 11:00:53;;;;;;;19.63;13.00;;;;;;;;;;4994523;28;20258;-52
2023/05/14 11:03:20;;;;;;;23.88;14.32;;;;;;;;;;4995872;28;20265;-51
2023/05/14 11:05:46;;;;;;;20.77;12.38;;;;;;;;;;4994409;28;20185;-52
2023/05/14 11:08:13;;;;;;;18.60;11.07;;;;;;;;;;4994984;28;20205;-55
2023/05/14 11:10:39;;;;;;;24.88;12.65;;;;;;;;;;4992919;28;20459;-54
2023/05/14 11:13:05;;;;;;;14.73;8.25;;;;;;;;;;4994674;28;20177;-55
2023/05/14 11:15:31;;;;;;;17.05;9.73;;;;;;;;;;4991751;28;20201;-52
2023/05/14 11:17:57;;;;;;;14.88;8.77;;;;;;;;;;4995286;28;20185;-57
2023/05/14 11:20:23;;;;;;;12.05;7.93;;;;;;;;;;4994060;28;20251;-57
2023/05/14 11:22:50;;;;;;;17.13;8.27;;;;;;;;;;4991278;28;20192;-56
2023/05/14 11:25:17;;;;;;;20.17;8.20;;;;;;;;;;4993221;28;20452;-56
2023/05/14 11:27:44;;;;;;;8.27;5.20;;;;;;;;;;4978376;28;20726;-56
2023/05/14 11:30:14;;;;;;;9.32;5.78;;;;;;;;;;4992978;28;20565;-56
2023/05/14 11:32:40;;;;;;;7.20;3.97;;;;;;;;;;4994870;28;20195;-56
2023/05/14 11:35:06;;;;;;;7.90;3.97;;;;;;;;;;4992352;28;20589;-57
2023/05/14 11:37:32;;;;;;;8.60;5.20;;;;;;;;;;4981187;28;20223;-57
2023/05/14 11:39:59;;;;;;;8.77;5.80;;;;;;;;;;4977061;28;20185;-57
2023/05/14 11:42:25;;;;;;;6.22;4.65;;;;;;;;;;4994354;28;20208;-57
2023/05/14 11:44:52;;;;;;;8.85;4.90;;;;;;;;;;4992200;28;20181;-57
2023/05/14 11:47:19;;;;;;;6.10;4.65;;;;;;;;;;4994376;28;20177;-57
2023/05/14 11:49:45;;;;;;;6.00;4.65;;;;;;;;;;4992097;28;20216;-55
2023/05/14 11:52:13;;;;;;;5.13;4.10;;;;;;;;;;4979838;28;20431;-60
2023/05/14 11:54:39;;;;;;;5.13;4.13;;;;;;;;;;4993116;28;20180;-57
2023/05/14 11:57:13;;;;;;;6.90;4.40;;;;;;;;;;4993938;28;20288;-57
2023/05/14 11:59:39;;;;;;;7.25;4.13;;;;;;;;;;4989607;28;20978;-57
2023/05/14 12:02:07;;;;;;;5.85;3.97;;;;;;;;;;4995001;28;20292;-57
2023/05/14 12:04:33;;;;;;;5.07;3.80;;;;;;;;;;4992964;28;20189;-57
2023/05/14 12:07:00;;;;;;;5.63;4.18;;;;;;;;;;4994881;28;20185;-57
2023/05/14 12:09:26;;;;;;;7.03;4.15;;;;;;;;;;4993798;28;20252;-57
2023/05/14 12:11:52;;;;;;;8.32;4.03;;;;;;;;;;4994658;28;20268;-57
2023/05/14 12:14:19;;;;;;;7.80;4.00;;;;;;;;;;4992615;28;20181;-57
2023/05/14 12:16:45;;;;;;;7.78;4.20;;;;;;;;;;4993121;28;20584;-57
2023/05/14 12:19:13;;;;;;;9.27;4.13;;;;;;;;;;4991105;28;20565;-57
2023/05/14 12:21:39;;;;;;;5.78;3.88;;;;;;;;;;4994818;28;20215;-57
2023/05/14 12:24:09;;;;;;;5.68;3.30;;;;;;;;;;4993957;28;20184;-57
2023/05/14 12:26:37;;;;;;;4.07;3.58;;;;;;;;;;4993648;28;20181;-57
2023/05/14 12:29:03;;;;;;;4.95;3.72;;;;;;;;;;4993165;28;20181;-57
2023/05/14 12:31:30;;;;;;;4.30;3.60;;;;;;;;;;4996978;28;20319;-57
2023/05/14 12:33:56;;;;;;;5.07;3.50;;;;;;;;;;4999549;28;20181;-57
2023/05/14 12:36:22;;;;;;;4.82;3.33;;;;;;;;;;4979578;28;20207;-57
2023/05/14 12:38:48;;;;;;;3.97;3.42;;;;;;;;;;4992786;28;20213;-57
2023/05/14 12:41:14;;;;;;;4.20;3.42;;;;;;;;;;4992729;28;20224;-57
2023/05/14 12:43:44;;;;;;;4.13;3.08;;;;;;;;;;4994122;28;20469;-57
2023/05/14 12:46:10;;;;;;;4.43;3.30;;;;;;;;;;4992410;28;20205;-57
2023/05/14 12:48:36;;;;;;;4.25;3.20;;;;;;;;;;4995185;28;20185;-57
2023/05/14 12:51:02;;;;;;;7.78;4.55;;;;;;;;;;4994368;28;20185;-57
2023/05/14 12:53:27;;;;;;;11.15;5.68;;;;;;;;;;4993647;28;20185;-57
2023/05/14 12:55:54;;;;;;;24.85;7.45;;;;;;;;;;4996115;28;20215;-57
2023/05/14 12:58:20;;;;;;;22.38;8.07;;;;;;;;;;4996790;28;20185;-57
2023/05/14 13:00:46;;;;;;;31.70;7.60;;;;;;;;;;4979381;28;20615;-57
2023/05/14 13:03:12;;;;;;;18.02;7.05;;;;;;;;;;4996893;28;20178;-57
2023/05/14 13:05:38;;;;;;;22.83;6.35;;;;;;;;;;4996199;28;20189;-57
2023/05/14 13:08:03;;;;;;;26.65;7.82;;;;;;;;;;4979165;28;20236;-57
2023/05/14 13:10:29;;;;;;;23.25;8.02;;;;;;;;;;4996836;28;20181;-57
2023/05/14 13:12:55;;;;;;;24.67;7.63;;;;;;;;;;4996952;28;20216;-57
2023/05/14 13:15:22;;;;;;;20.90;7.47;;;;;;;;;;4995771;28;20197;-57
2023/05/14 13:17:48;;;;;;;17.52;7.15;;;;;;;;;;4996847;28;20575;-57
2023/05/14 13:20:14;;;;;;;20.80;7.55;;;;;;;;;;4995734;28;20178;-57
2023/05/14 13:22:40;;;;;;;18.45;6.47;;;;;;;;;;4996658;28;20595;-56
2023/05/14 13:25:06;;;;;;;24.48;7.45;;;;;;;;;;4996277;28;20280;-56
2023/05/14 13:27:34;;;;;;;18.25;7.07;;;;;;;;;;4980386;28;20268;-58
2023/05/14 13:30:00;;;;;;;16.95;6.28;;;;;;;;;;4996754;28;20181;-57
2023/05/14 13:32:26;;;;;;;14.57;6.20;;;;;;;;;;4995278;28;20235;-57
2023/05/14 13:34:52;;;;;;;17.52;7.15;;;;;;;;;;4979951;28;20193;-57
2023/05/14 13:37:18;;;;;;;13.80;6.15;;;;;;;;;;4996374;28;20189;-57
2023/05/14 13:39:44;;;;;;;13.88;6.32;;;;;;;;;;4995144;28;20181;-57
2023/05/14 13:42:10;;;;;;;18.35;6.78;;;;;;;;;;4996081;28;20592;-57
2023/05/14 13:44:36;;;;;;;15.48;5.95;;;;;;;;;;4994283;28;20185;-57
2023/05/14 13:47:02;;;;;;;14.73;5.97;;;;;;;;;;4978703;28;20177;-57
2023/05/14 13:49:28;;;;;;;15.20;5.65;;;;;;;;;;4995453;28;20196;-57
2023/05/14 13:51:53;;;;;;;11.77;5.38;;;;;;;;;;4978498;28;20221;-57
2023/05/14 13:54:19;;;;;;;15.00;6.25;;;;;;;;;;4997062;28;20173;-57
2023/05/14 13:56:45;;;;;;;13.63;6.03;;;;;;;;;;4996032;28;20525;-57
2023/05/14 13:59:11;;;;;;;11.65;5.20;;;;;;;;;;4993842;28;20181;-56
2023/05/14 14:01:37;;;;;;;16.13;6.00;;;;;;;;;;4995549;28;20446;-56
2023/05/14 14:04:03;;;;;;;12.85;5.15;;;;;;;;;;4978589;28;20198;-57
2023/05/14 14:06:33;;;;;;;10.75;5.40;;;;;;;;;;4995709;28;20229;-57
2023/05/14 14:08:59;;;;;;;8.45;4.70;;;;;;;;;;4995073;28;20263;-57
2023/05/14 14:11:25;;;;;;;8.82;4.65;;;;;;;;;;4996680;28;20641;-57
2023/05/14 14:13:51;;;;;;;9.05;4.80;;;;;;;;;;4994637;28;20193;-55
2023/05/14 14:16:17;;;;;;;8.00;4.68;;;;;;;;;;4995579;28;20592;-56
2023/05/14 14:18:43;;;;;;;8.45;4.70;;;;;;;;;;4995331;28;20193;-56
2023/05/14 14:21:09;;;;;;;8.40;4.32;;;;;;;;;;4995293;28;20219;-56
2023/05/14 14:23:35;;;;;;;9.88;4.53;;;;;;;;;;4993145;28;20189;-56
2023/05/14 14:26:01;;;;;;;6.90;4.10;;;;;;;;;;4995980;28;20213;-56
2023/05/14 14:28:27;;;;;;;7.72;4.53;;;;;;;;;;4994191;28;20232;-56
2023/05/14 14:30:53;;;;;;;8.82;4.63;;;;;;;;;;4995880;28;20207;-56
2023/05/14 14:33:19;;;;;;;7.88;4.30;;;;;;;;;;4994585;28;20276;-57
2023/05/14 14:35:45;;;;;;;7.93;4.18;;;;;;;;;;4994765;28;20235;-57